Terminal Aerodrome Forecast
Issued by NWS Jacksonville, FL

Home | Current Version | Previous Version | Text Only | Print | Product List | Glossary On
Versions: 1 2 3 4 5 6 7 8 9 10 11 12 13 14 15 16
000
FTUS42 KJAX 161900 AAA
TAFJAX
TAF AMD
KJAX 161919Z 1619/1718 23007KT P6SM VCTS FEW008 BKN015CB OVC060
      TEMPO 1619/1622 VRB12KT 2SM TSRA BKN020CB OVC050
     FM170100 24003KT P6SM SCT020 OVC100
     FM171500 31006KT P6SM FEW020 SCT250=

USA.gov is the U.S. government's official web portal to all federal, state and local government web resources and services.